createdAt,value
2022-11-06T00:00:57.773Z,98.82
2022-11-06T00:01:57.819Z,98.82
2022-11-06T00:02:57.852Z,98.82
2022-11-06T00:03:57.800Z,98.82
2022-11-06T00:04:57.775Z,98.82
2022-11-06T00:05:57.772Z,98.82
2022-11-06T00:06:57.776Z,98.82
2022-11-06T00:07:57.774Z,98.82
2022-11-06T00:08:57.789Z,98.82
2022-11-06T00:09:57.784Z,98.82
2022-11-06T00:10:57.787Z,98.82
2022-11-06T00:11:57.782Z,98.82
2022-11-06T00:12:57.778Z,98.82
2022-11-06T00:13:57.785Z,98.82
2022-11-06T00:14:57.779Z,98.82
2022-11-06T00:15:57.789Z,98.82
2022-11-06T00:16:57.785Z,98.82
2022-11-06T00:17:57.782Z,98.82
2022-11-06T00:18:57.791Z,98.82
2022-11-06T00:19:57.823Z,98.82
2022-11-06T00:20:57.807Z,98.82
2022-11-06T00:21:57.794Z,98.82
2022-11-06T00:22:57.789Z,98.82
2022-11-06T00:23:57.795Z,98.82
2022-11-06T00:24:57.791Z,98.82
2022-11-06T00:25:57.793Z,98.82
2022-11-06T00:26:57.799Z,98.82
2022-11-06T00:27:57.796Z,98.82
2022-11-06T00:28:57.811Z,98.82
2022-11-06T00:29:57.807Z,98.82
2022-11-06T00:30:57.802Z,98.82
2022-11-06T00:31:57.799Z,98.82
2022-11-06T00:32:57.794Z,98.82
2022-11-06T00:33:57.803Z,98.82
2022-11-06T00:34:57.802Z,98.82
2022-11-06T00:35:57.821Z,98.82
2022-11-06T00:36:57.805Z,98.82
2022-11-06T00:37:57.807Z,98.82
2022-11-06T00:38:57.811Z,98.82
2022-11-06T00:39:57.807Z,98.82
2022-11-06T00:40:57.810Z,98.82
2022-11-06T00:41:57.808Z,98.82
2022-11-06T00:42:57.808Z,98.82
2022-11-06T00:43:57.812Z,98.82
2022-11-06T00:44:57.812Z,98.82
2022-11-06T00:45:57.815Z,98.82
2022-11-06T00:46:57.812Z,98.82
2022-11-06T00:47:57.824Z,98.82
2022-11-06T00:48:57.815Z,98.82
2022-11-06T00:49:57.819Z,98.82
2022-11-06T00:50:57.821Z,98.82
2022-11-06T00:51:57.862Z,98.82
2022-11-06T00:52:57.820Z,98.82
2022-11-06T00:53:57.831Z,98.82
2022-11-06T00:54:57.820Z,98.82
2022-11-06T00:55:57.813Z,98.82
2022-11-06T00:56:57.819Z,98.82
2022-11-06T00:57:57.816Z,98.82
2022-11-06T00:58:57.829Z,98.82
2022-11-06T00:59:57.823Z,98.82
2022-11-06T01:00:57.830Z,98.82
2022-11-06T01:01:57.919Z,98.82
2022-11-06T01:02:57.928Z,98.82
2022-11-06T01:03:57.828Z,98.82
2022-11-06T01:04:57.844Z,98.82
2022-11-06T01:05:57.832Z,98.82
2022-11-06T01:06:57.841Z,98.82
2022-11-06T01:07:57.861Z,98.82
2022-11-06T01:08:57.833Z,98.82
2022-11-06T01:09:57.834Z,98.82
2022-11-06T01:10:57.835Z,98.82
2022-11-06T01:12:14.320Z,98.82
2022-11-06T01:12:57.827Z,98.82
2022-11-06T01:13:57.840Z,98.82
2022-11-06T01:14:57.831Z,98.82
2022-11-06T01:15:57.840Z,98.82
2022-11-06T01:16:57.835Z,98.82
2022-11-06T01:17:57.855Z,98.82
2022-11-06T01:18:57.834Z,98.82
2022-11-06T01:19:57.830Z,98.82
2022-11-06T01:20:57.839Z,98.82
2022-11-06T01:21:57.841Z,98.82
2022-11-06T01:22:57.837Z,98.82
2022-11-06T01:23:57.868Z,98.82
2022-11-06T01:24:57.932Z,98.82
2022-11-06T01:25:57.846Z,98.82
2022-11-06T01:27:24.709Z,98.82
2022-11-06T01:27:57.848Z,98.82
2022-11-06T01:28:57.848Z,98.82
2022-11-06T01:29:57.841Z,98.82
2022-11-06T01:30:57.847Z,98.82
2022-11-06T01:31:57.846Z,98.82
2022-11-06T01:32:57.845Z,98.82
2022-11-06T01:33:57.846Z,98.82
2022-11-06T01:34:57.846Z,98.82
2022-11-06T01:35:57.844Z,98.82
2022-11-06T01:36:57.845Z,98.82
2022-11-06T01:37:57.850Z,98.82
2022-11-06T01:38:57.851Z,98.82
2022-11-06T01:39:57.873Z,98.82
2022-11-06T01:40:57.851Z,98.82
2022-11-06T01:41:57.855Z,98.82
2022-11-06T01:42:57.843Z,98.82
2022-11-06T01:43:57.848Z,98.82
2022-11-06T01:44:57.859Z,98.82
2022-11-06T01:45:57.851Z,98.82
2022-11-06T01:46:57.852Z,98.82
2022-11-06T01:47:57.855Z,98.82
2022-11-06T01:48:57.848Z,98.82
2022-11-06T01:49:57.840Z,98.82
2022-11-06T01:50:57.853Z,98.82
2022-11-06T01:51:57.854Z,98.82
2022-11-06T01:52:57.848Z,98.82
2022-11-06T01:53:57.849Z,98.82
2022-11-06T01:54:57.859Z,98.82
2022-11-06T01:55:57.876Z,98.82
2022-11-06T01:56:57.853Z,98.82
2022-11-06T01:57:57.851Z,98.82
2022-11-06T01:58:57.863Z,98.82
2022-11-06T01:59:57.861Z,98.82
2022-11-06T02:00:57.860Z,98.82
2022-11-06T02:01:57.954Z,98.82
2022-11-06T02:02:57.966Z,98.82
2022-11-06T02:03:57.856Z,98.82
2022-11-06T02:04:57.860Z,98.82
2022-11-06T02:05:57.858Z,98.82
2022-11-06T02:06:57.864Z,98.82
2022-11-06T02:07:57.868Z,98.82
2022-11-06T02:08:57.856Z,98.82
2022-11-06T02:09:57.863Z,98.82
2022-11-06T02:10:57.861Z,98.82
2022-11-06T02:11:57.905Z,98.82
2022-11-06T02:12:57.863Z,98.82
2022-11-06T02:13:57.861Z,98.82
2022-11-06T02:14:57.868Z,98.82
2022-11-06T02:15:57.866Z,98.82
2022-11-06T02:16:57.867Z,98.82
2022-11-06T02:17:57.873Z,98.82
2022-11-06T02:18:57.874Z,98.82
2022-11-06T02:19:57.880Z,98.82
2022-11-06T02:20:57.879Z,98.82
2022-11-06T02:21:57.867Z,98.82
2022-11-06T02:22:57.883Z,98.82
2022-11-06T02:23:57.875Z,98.82
2022-11-06T02:24:57.877Z,98.82
2022-11-06T02:25:57.877Z,98.82
2022-11-06T02:26:57.884Z,98.82
2022-11-06T02:27:57.900Z,98.82
2022-11-06T02:28:57.884Z,98.82
2022-11-06T02:29:57.875Z,98.82
2022-11-06T02:30:57.886Z,98.82
2022-11-06T02:31:57.879Z,98.82
2022-11-06T02:32:57.887Z,98.82
2022-11-06T02:33:57.882Z,98.82
2022-11-06T02:34:57.882Z,98.82
2022-11-06T02:35:57.889Z,98.82
2022-11-06T02:36:57.892Z,98.82
2022-11-06T02:37:57.884Z,98.82
2022-11-06T02:38:57.891Z,98.82
2022-11-06T02:39:57.884Z,98.82
2022-11-06T02:40:57.884Z,98.82
2022-11-06T02:41:57.923Z,98.82
2022-11-06T02:42:57.900Z,98.82
2022-11-06T02:43:57.915Z,98.82
2022-11-06T02:44:57.915Z,98.82
2022-11-06T02:45:57.885Z,98.82
2022-11-06T02:46:57.884Z,98.82
2022-11-06T02:47:57.875Z,98.82
2022-11-06T02:48:57.884Z,98.82
2022-11-06T02:49:57.881Z,98.82
2022-11-06T02:50:57.878Z,98.82
2022-11-06T02:51:57.883Z,98.82
2022-11-06T02:52:57.877Z,98.82
2022-11-06T02:53:57.885Z,98.82
2022-11-06T02:54:57.881Z,98.82
2022-11-06T02:55:57.875Z,98.82
2022-11-06T02:56:57.878Z,98.82
2022-11-06T02:57:57.882Z,98.82
2022-11-06T02:58:57.878Z,98.82
2022-11-06T02:59:58.017Z,98.82
2022-11-06T03:00:57.876Z,98.82
2022-11-06T03:01:58.025Z,98.82
2022-11-06T03:02:58.053Z,98.82
2022-11-06T03:03:57.891Z,98.82
2022-11-06T03:04:57.882Z,98.82
2022-11-06T03:05:57.879Z,98.82
2022-11-06T03:06:57.891Z,98.82
2022-11-06T03:07:57.881Z,98.82
2022-11-06T03:08:57.888Z,98.82
2022-11-06T03:09:57.891Z,98.82
2022-11-06T03:10:57.879Z,98.82
2022-11-06T03:11:57.882Z,98.82
2022-11-06T03:12:57.885Z,98.82
2022-11-06T03:13:57.886Z,98.82
2022-11-06T03:14:57.884Z,98.82
2022-11-06T03:15:57.905Z,98.82
2022-11-06T03:16:57.884Z,98.82
2022-11-06T03:17:57.886Z,98.82
2022-11-06T03:18:57.886Z,98.82
2022-11-06T03:19:57.883Z,98.82
2022-11-06T03:20:57.888Z,98.82
2022-11-06T03:21:57.889Z,98.82
2022-11-06T03:22:57.888Z,98.82
2022-11-06T03:23:57.881Z,98.82
2022-11-06T03:24:57.889Z,98.82
2022-11-06T03:25:57.880Z,98.82
2022-11-06T03:26:57.882Z,98.82
2022-11-06T03:27:57.888Z,98.82
2022-11-06T03:28:57.876Z,98.82
2022-11-06T03:29:57.888Z,98.82
2022-11-06T03:30:57.890Z,98.82
2022-11-06T03:31:57.911Z,98.82
2022-11-06T03:32:57.882Z,98.82
2022-11-06T03:33:57.886Z,98.82
2022-11-06T03:34:57.889Z,98.82
2022-11-06T03:35:57.887Z,98.82
2022-11-06T03:36:57.887Z,98.82
2022-11-06T03:37:57.895Z,98.82
2022-11-06T03:38:57.905Z,98.82
2022-11-06T03:39:57.898Z,98.82
2022-11-06T03:40:57.904Z,98.82
2022-11-06T03:41:57.892Z,98.82
2022-11-06T03:42:57.896Z,98.82
2022-11-06T03:43:57.892Z,98.82
2022-11-06T03:44:57.896Z,98.82
2022-11-06T03:45:57.900Z,98.82
2022-11-06T03:46:57.909Z,98.82
2022-11-06T03:47:57.932Z,98.82
2022-11-06T03:48:57.897Z,98.82
2022-11-06T03:49:57.905Z,98.82
2022-11-06T03:50:57.907Z,98.82
2022-11-06T03:51:57.907Z,98.82
2022-11-06T03:52:57.905Z,98.82
2022-11-06T03:53:57.906Z,98.82
2022-11-06T03:54:57.912Z,98.82
2022-11-06T03:55:57.905Z,98.82
2022-11-06T03:56:57.910Z,98.82
2022-11-06T03:57:57.910Z,98.82
2022-11-06T03:58:57.996Z,98.82
2022-11-06T03:59:57.913Z,98.82
2022-11-06T04:00:57.910Z,98.82
2022-11-06T04:01:58.021Z,98.82
2022-11-06T04:02:58.033Z,98.82
2022-11-06T04:03:57.936Z,98.82
2022-11-06T04:04:57.916Z,98.82
2022-11-06T04:05:57.926Z,98.82
2022-11-06T04:06:57.924Z,98.82
2022-11-06T04:07:57.916Z,98.82
2022-11-06T04:08:57.918Z,98.82
2022-11-06T04:09:57.928Z,98.82
2022-11-06T04:10:57.921Z,98.82
2022-11-06T04:11:57.919Z,98.82
2022-11-06T04:12:57.923Z,98.82
2022-11-06T04:13:57.924Z,98.82
2022-11-06T04:14:57.927Z,98.82
2022-11-06T04:15:57.924Z,98.82
2022-11-06T04:16:57.934Z,98.82
2022-11-06T04:17:57.930Z,98.82
2022-11-06T04:18:57.927Z,98.82
2022-11-06T04:19:57.950Z,98.82
2022-11-06T04:20:57.929Z,98.82
2022-11-06T04:21:57.923Z,98.82
2022-11-06T04:22:57.932Z,98.82
2022-11-06T04:23:57.930Z,98.82
2022-11-06T04:24:57.928Z,98.82
2022-11-06T04:25:57.937Z,98.82
2022-11-06T04:26:57.936Z,98.82
2022-11-06T04:27:57.946Z,98.82
2022-11-06T04:28:57.934Z,98.82
2022-11-06T04:29:57.940Z,98.82
2022-11-06T04:30:57.938Z,98.82
2022-11-06T04:31:57.936Z,98.82
2022-11-06T04:33:00.208Z,98.82
2022-11-06T04:33:57.943Z,98.82
2022-11-06T04:34:57.940Z,98.82
2022-11-06T04:35:57.961Z,98.82
2022-11-06T04:36:57.942Z,98.82
2022-11-06T04:37:57.938Z,98.82
2022-11-06T04:38:57.971Z,98.82
2022-11-06T04:39:57.951Z,98.82
2022-11-06T04:40:57.941Z,98.82
2022-11-06T04:41:57.939Z,98.82
2022-11-06T04:42:57.943Z,98.82
2022-11-06T04:43:57.949Z,98.82
2022-11-06T04:44:57.952Z,98.82
2022-11-06T04:45:57.946Z,98.82
2022-11-06T04:46:57.946Z,98.82
2022-11-06T04:47:57.941Z,98.82
2022-11-06T04:48:57.949Z,98.82
2022-11-06T04:49:57.954Z,98.82
2022-11-06T04:50:57.946Z,98.82
2022-11-06T04:51:57.973Z,98.82
2022-11-06T04:52:57.948Z,98.82
2022-11-06T04:53:57.954Z,98.82
2022-11-06T04:54:57.949Z,98.82
2022-11-06T04:55:57.957Z,98.82
2022-11-06T04:56:57.967Z,98.82
2022-11-06T04:57:57.954Z,98.82
2022-11-06T04:58:57.975Z,98.82
2022-11-06T04:59:57.973Z,98.82
2022-11-06T05:00:57.981Z,98.82
2022-11-06T05:01:58.018Z,98.82
2022-11-06T05:02:57.958Z,98.82
2022-11-06T05:03:57.966Z,98.82
2022-11-06T05:04:57.960Z,98.82
2022-11-06T05:05:57.963Z,98.82
2022-11-06T05:06:57.967Z,98.82
2022-11-06T05:07:57.993Z,98.82
2022-11-06T05:08:57.969Z,98.82
2022-11-06T05:09:57.969Z,98.82
2022-11-06T05:10:57.966Z,98.82
2022-11-06T05:11:57.967Z,98.82
2022-11-06T05:12:57.976Z,98.82
2022-11-06T05:13:57.964Z,98.82
2022-11-06T05:14:57.969Z,98.82
2022-11-06T05:15:57.973Z,98.82
2022-11-06T05:16:57.987Z,98.82
2022-11-06T05:17:57.972Z,98.82
2022-11-06T05:18:57.973Z,98.82
2022-11-06T05:19:57.970Z,98.82
2022-11-06T05:20:57.975Z,98.82
2022-11-06T05:21:57.968Z,98.82
2022-11-06T05:22:57.977Z,98.82
2022-11-06T05:23:57.999Z,98.82
2022-11-06T05:24:57.979Z,98.82
2022-11-06T05:25:57.974Z,98.82
2022-11-06T05:26:59.479Z,98.82
2022-11-06T05:27:57.976Z,98.82
2022-11-06T05:28:57.982Z,98.82
2022-11-06T05:29:57.980Z,98.82
2022-11-06T05:30:57.981Z,98.82
2022-11-06T05:31:57.982Z,98.82
2022-11-06T05:32:57.982Z,98.82
2022-11-06T05:33:57.980Z,98.82
2022-11-06T05:34:57.986Z,98.82
2022-11-06T05:35:57.982Z,98.82
2022-11-06T05:36:57.976Z,98.82
2022-11-06T05:37:57.990Z,98.82
2022-11-06T05:38:57.986Z,98.82
2022-11-06T05:39:58.008Z,98.82
2022-11-06T05:40:57.975Z,98.82
2022-11-06T05:41:57.988Z,98.82
2022-11-06T05:42:57.980Z,98.82
2022-11-06T05:43:57.979Z,98.82
2022-11-06T05:44:57.985Z,98.82
2022-11-06T05:45:57.988Z,98.82
2022-11-06T05:46:57.984Z,98.82
2022-11-06T05:47:57.987Z,98.82
2022-11-06T05:48:57.987Z,98.82
2022-11-06T05:49:57.987Z,98.82
2022-11-06T05:50:57.987Z,98.82
2022-11-06T05:51:57.995Z,98.82
2022-11-06T05:52:57.986Z,98.82
2022-11-06T05:53:57.980Z,98.82
2022-11-06T05:54:57.989Z,98.82
2022-11-06T05:55:58.049Z,98.82
2022-11-06T05:56:57.984Z,98.82
2022-11-06T05:57:57.987Z,98.82
2022-11-06T05:58:57.996Z,98.82
2022-11-06T05:59:57.984Z,98.82
2022-11-06T06:00:57.990Z,98.82
2022-11-06T06:01:58.105Z,98.82
2022-11-06T06:02:57.999Z,98.82
2022-11-06T06:03:57.997Z,98.82
2022-11-06T06:04:57.984Z,98.82
2022-11-06T06:05:57.987Z,98.82
2022-11-06T06:06:57.988Z,98.82
2022-11-06T06:07:57.987Z,98.82
2022-11-06T06:08:57.988Z,98.82
2022-11-06T06:09:57.993Z,98.82
2022-11-06T06:10:57.992Z,98.82
2022-11-06T06:11:58.013Z,98.82
2022-11-06T06:12:57.996Z,98.82
2022-11-06T06:13:57.992Z,127.06
2022-11-06T06:14:57.990Z,105.88
2022-11-06T06:15:57.999Z,105.88
2022-11-06T06:16:57.989Z,105.88
2022-11-06T06:17:58.024Z,105.88
2022-11-06T06:18:57.989Z,105.88
2022-11-06T06:19:57.988Z,105.88
2022-11-06T06:20:57.993Z,105.88
2022-11-06T06:21:57.991Z,105.88
2022-11-06T06:22:57.989Z,105.88
2022-11-06T06:23:57.987Z,105.88
2022-11-06T06:24:58.031Z,105.88
2022-11-06T06:25:58.004Z,105.88
2022-11-06T06:26:57.995Z,105.88
2022-11-06T06:27:58.261Z,105.88
2022-11-06T06:28:57.989Z,105.88
2022-11-06T06:29:57.994Z,105.88
2022-11-06T06:31:01.443Z,105.88
2022-11-06T06:31:57.990Z,105.88
2022-11-06T06:32:57.995Z,105.88
2022-11-06T06:33:57.996Z,105.88
2022-11-06T06:34:57.990Z,105.88
2022-11-06T06:35:57.993Z,105.88
2022-11-06T06:36:58.003Z,105.88
2022-11-06T06:37:57.991Z,105.88
2022-11-06T06:38:57.998Z,105.88
2022-11-06T06:39:58.001Z,105.88
2022-11-06T06:40:58.001Z,105.88
2022-11-06T06:41:58.009Z,105.88
2022-11-06T06:42:58.004Z,105.88
2022-11-06T06:43:58.105Z,105.88
2022-11-06T06:44:58.014Z,105.88
2022-11-06T06:45:58.005Z,105.88
2022-11-06T06:46:58.004Z,105.88
2022-11-06T06:47:58.006Z,105.88
2022-11-06T06:48:58.002Z,105.88
2022-11-06T06:49:58.007Z,105.88
2022-11-06T06:50:58.013Z,105.88
2022-11-06T06:51:58.012Z,105.88
2022-11-06T06:52:58.022Z,105.88
2022-11-06T06:53:58.007Z,105.88
2022-11-06T06:54:58.015Z,105.88
2022-11-06T06:55:58.012Z,105.88
2022-11-06T06:56:58.018Z,105.88
2022-11-06T06:57:58.021Z,105.88
2022-11-06T06:58:58.017Z,105.88
2022-11-06T06:59:58.054Z,105.88
2022-11-06T07:00:58.087Z,105.88
2022-11-06T07:01:58.071Z,105.88
2022-11-06T07:02:58.024Z,105.88
2022-11-06T07:04:02.876Z,105.88
2022-11-06T07:04:58.030Z,105.88
2022-11-06T07:05:58.028Z,105.88
2022-11-06T07:06:58.028Z,105.88
2022-11-06T07:07:58.028Z,105.88
2022-11-06T07:08:58.042Z,105.88
2022-11-06T07:09:58.033Z,105.88
2022-11-06T07:10:58.025Z,105.88
2022-11-06T07:11:58.033Z,105.88
2022-11-06T07:12:58.041Z,105.88
2022-11-06T07:13:58.032Z,105.88
2022-11-06T07:14:58.033Z,105.88
2022-11-06T07:15:58.059Z,105.88
2022-11-06T07:16:58.054Z,105.88
2022-11-06T07:17:58.048Z,105.88
2022-11-06T07:18:58.045Z,105.88
2022-11-06T07:19:58.053Z,105.88
2022-11-06T07:20:58.054Z,105.88
2022-11-06T07:21:58.060Z,105.88
2022-11-06T07:22:58.067Z,105.88
2022-11-06T07:23:58.056Z,105.88
2022-11-06T07:24:58.065Z,105.88
2022-11-06T07:25:58.058Z,105.88
2022-11-06T07:26:58.063Z,105.88
2022-11-06T07:28:02.498Z,105.88
2022-11-06T07:28:58.066Z,105.88
2022-11-06T07:29:58.066Z,105.88
2022-11-06T07:30:58.066Z,105.88
2022-11-06T07:31:58.092Z,105.88
2022-11-06T07:32:58.066Z,105.88
2022-11-06T07:33:58.068Z,105.88
2022-11-06T07:34:58.086Z,105.88
2022-11-06T07:35:58.078Z,105.88
2022-11-06T07:36:58.080Z,105.88
2022-11-06T07:37:58.078Z,105.88
2022-11-06T07:38:58.080Z,105.88
2022-11-06T07:39:58.093Z,105.88
2022-11-06T07:40:58.080Z,105.88
2022-11-06T07:41:58.103Z,105.88
2022-11-06T07:42:58.090Z,105.88
2022-11-06T07:43:58.088Z,105.88
2022-11-06T07:44:58.113Z,105.88
2022-11-06T07:45:58.089Z,105.88
2022-11-06T07:46:58.098Z,105.88
2022-11-06T07:47:59.259Z,105.88
2022-11-06T07:48:58.101Z,105.88
2022-11-06T07:49:58.097Z,105.88
2022-11-06T07:50:58.168Z,105.88
2022-11-06T07:51:58.106Z,105.88
2022-11-06T07:52:58.110Z,105.88
2022-11-06T07:53:58.103Z,105.88
2022-11-06T07:54:58.102Z,105.88
2022-11-06T07:55:58.104Z,105.88
2022-11-06T07:56:58.109Z,105.88
2022-11-06T07:57:58.106Z,105.88
2022-11-06T07:58:58.097Z,105.88
2022-11-06T07:59:58.108Z,105.88
2022-11-06T08:00:58.359Z,105.88
2022-11-06T08:01:58.215Z,105.88
2022-11-06T08:02:58.112Z,105.88
2022-11-06T08:03:58.136Z,105.88
2022-11-06T08:04:58.117Z,105.88
2022-11-06T08:05:58.111Z,105.88
2022-11-06T08:06:58.120Z,105.88
2022-11-06T08:07:58.121Z,105.88
2022-11-06T08:08:59.150Z,105.88
2022-11-06T08:09:58.134Z,105.88
2022-11-06T08:10:58.129Z,105.88
2022-11-06T08:11:58.120Z,105.88
2022-11-06T08:12:58.127Z,105.88
2022-11-06T08:13:58.122Z,105.88
2022-11-06T08:14:58.138Z,105.88
2022-11-06T08:15:58.152Z,105.88
2022-11-06T08:16:58.127Z,105.88
2022-11-06T08:17:58.134Z,105.88
2022-11-06T08:18:58.138Z,105.88
2022-11-06T08:19:58.155Z,105.88
2022-11-06T08:20:58.135Z,105.88
2022-11-06T08:21:58.146Z,105.88
2022-11-06T08:22:58.147Z,105.88
2022-11-06T08:23:58.152Z,105.88
2022-11-06T08:24:58.145Z,105.88
2022-11-06T08:25:58.149Z,105.88
2022-11-06T08:26:58.143Z,105.88
2022-11-06T08:27:58.147Z,105.88
2022-11-06T08:28:58.151Z,105.88
2022-11-06T08:29:58.149Z,105.88
2022-11-06T08:30:58.154Z,105.88
2022-11-06T08:31:58.148Z,105.88
2022-11-06T08:32:58.152Z,105.88
2022-11-06T08:33:58.157Z,105.88
2022-11-06T08:34:58.157Z,105.88
2022-11-06T08:35:58.180Z,105.88
2022-11-06T08:36:58.161Z,105.88
2022-11-06T08:37:58.156Z,105.88
2022-11-06T08:38:58.159Z,105.88
2022-11-06T08:39:58.166Z,105.88
2022-11-06T08:40:58.176Z,105.88
2022-11-06T08:41:58.166Z,105.88
2022-11-06T08:42:58.160Z,105.88
2022-11-06T08:43:58.171Z,105.88
2022-11-06T08:44:58.164Z,105.88
2022-11-06T08:45:58.168Z,105.88
2022-11-06T08:46:58.164Z,105.88
2022-11-06T08:47:58.166Z,105.88
2022-11-06T08:48:58.173Z,105.88
2022-11-06T08:49:58.175Z,105.88
2022-11-06T08:50:58.170Z,105.88
2022-11-06T08:51:58.290Z,105.88
2022-11-06T08:52:58.178Z,105.88
2022-11-06T08:53:58.252Z,105.88
2022-11-06T08:54:58.179Z,105.88
2022-11-06T08:55:58.187Z,105.88
2022-11-06T08:56:58.174Z,105.88
2022-11-06T08:57:58.173Z,105.88
2022-11-06T08:58:58.180Z,105.88
2022-11-06T08:59:58.184Z,105.88
2022-11-06T09:00:58.200Z,105.88
2022-11-06T09:01:58.342Z,105.88
2022-11-06T09:02:58.181Z,105.88
2022-11-06T09:03:58.191Z,105.88
2022-11-06T09:04:58.183Z,105.88
2022-11-06T09:05:58.187Z,105.88
2022-11-06T09:06:58.192Z,105.88
2022-11-06T09:07:58.368Z,105.88
2022-11-06T09:08:58.199Z,105.88
2022-11-06T09:09:58.190Z,105.88
2022-11-06T09:10:58.946Z,105.88
2022-11-06T09:11:58.197Z,105.88
2022-11-06T09:12:58.192Z,105.88
2022-11-06T09:13:58.195Z,105.88
2022-11-06T09:14:58.195Z,165.18
2022-11-06T09:15:58.207Z,156.71
2022-11-06T09:16:58.206Z,156.71
2022-11-06T09:17:58.214Z,156.71
2022-11-06T09:18:58.202Z,156.71
2022-11-06T09:19:58.203Z,159.53
2022-11-06T09:20:58.204Z,165.18
2022-11-06T09:21:58.202Z,165.18
2022-11-06T09:22:58.215Z,165.18
2022-11-06T09:23:58.220Z,165.18
2022-11-06T09:25:03.469Z,165.18
2022-11-06T09:25:58.203Z,165.18
2022-11-06T09:26:58.212Z,165.18
2022-11-06T09:27:59.563Z,152.47
2022-11-06T09:28:58.210Z,152.47
2022-11-06T09:29:58.213Z,152.47
2022-11-06T09:30:58.219Z,152.47
2022-11-06T09:31:58.210Z,152.47
2022-11-06T09:32:58.224Z,163.76
2022-11-06T09:33:58.211Z,169.41
2022-11-06T09:34:58.209Z,169.41
2022-11-06T09:35:58.213Z,169.41
2022-11-06T09:36:58.218Z,169.41
2022-11-06T09:37:58.215Z,169.41
2022-11-06T09:38:58.220Z,180.71
2022-11-06T09:40:01.840Z,166.59
2022-11-06T09:40:58.245Z,166.59
2022-11-06T09:41:58.220Z,166.59
2022-11-06T09:42:58.225Z,166.59
2022-11-06T09:44:04.964Z,166.59
2022-11-06T09:44:58.226Z,166.59
2022-11-06T09:45:58.229Z,166.59
2022-11-06T09:46:58.240Z,166.59
2022-11-06T09:47:58.225Z,165.18
2022-11-06T09:48:58.233Z,163.76
2022-11-06T09:49:58.234Z,208.94
2022-11-06T09:50:58.238Z,214.59
2022-11-06T09:51:58.241Z,193.41
2022-11-06T09:53:01.681Z,201.88
2022-11-06T09:53:58.242Z,165.18
2022-11-06T09:54:58.242Z,80.47
2022-11-06T09:55:58.270Z,211.76
2022-11-06T09:56:58.249Z,217.41
2022-11-06T09:57:58.247Z,193.41
2022-11-06T09:58:58.250Z,149.65
2022-11-06T09:59:58.258Z,175.06
2022-11-06T10:00:58.330Z,142.59
2022-11-06T10:01:58.395Z,163.76
2022-11-06T10:02:58.344Z,182.12
2022-11-06T10:03:58.261Z,162.35
2022-11-06T10:04:58.256Z,169.41
2022-11-06T10:05:58.262Z,248.47
2022-11-06T10:06:58.257Z,192
2022-11-06T10:07:58.267Z,189.18
2022-11-06T10:08:58.260Z,208.94
2022-11-06T10:09:58.259Z,192
2022-11-06T10:10:58.269Z,190.59
2022-11-06T10:11:58.298Z,175.06
2022-11-06T10:12:58.279Z,166.59
2022-11-06T10:13:58.263Z,211.76
2022-11-06T10:14:58.270Z,206.12
2022-11-06T10:15:58.263Z,194.82
2022-11-06T10:16:58.269Z,214.59
2022-11-06T10:17:58.272Z,184.94
2022-11-06T10:18:58.342Z,175.06
2022-11-06T10:19:58.273Z,149.65
2022-11-06T10:20:58.276Z,201.88
2022-11-06T10:21:58.272Z,121.41
2022-11-06T10:22:58.271Z,208.94
2022-11-06T10:23:58.276Z,194.82
2022-11-06T10:24:58.275Z,182.12
2022-11-06T10:25:58.274Z,196.24
2022-11-06T10:26:58.298Z,189.18
2022-11-06T10:27:58.337Z,203.29
2022-11-06T10:28:58.282Z,153.88
2022-11-06T10:29:58.287Z,159.53
2022-11-06T10:30:58.279Z,145.41
2022-11-06T10:31:58.285Z,145.41
2022-11-06T10:32:58.289Z,151.06
2022-11-06T10:33:58.290Z,135.53
2022-11-06T10:34:58.287Z,151.06
2022-11-06T10:35:58.290Z,203.29
2022-11-06T10:36:58.287Z,176.47
2022-11-06T10:37:58.295Z,112.94
2022-11-06T10:38:58.287Z,105.88
2022-11-06T10:39:58.304Z,144
2022-11-06T10:40:58.288Z,169.41
2022-11-06T10:41:58.302Z,175.06
2022-11-06T10:42:58.290Z,166.59
2022-11-06T10:43:58.317Z,196.24
2022-11-06T10:44:58.304Z,172.24
2022-11-06T10:45:58.300Z,176.47
2022-11-06T10:46:58.298Z,166.59
2022-11-06T10:47:58.310Z,189.18
2022-11-06T10:48:58.302Z,197.65
2022-11-06T10:49:58.305Z,179.29
2022-11-06T10:50:58.299Z,177.88
2022-11-06T10:51:58.305Z,172.24
2022-11-06T10:52:58.304Z,170.82
2022-11-06T10:53:58.307Z,184.94
2022-11-06T10:54:58.304Z,151.06
2022-11-06T10:55:58.302Z,206.12
2022-11-06T10:56:58.299Z,196.24
2022-11-06T10:57:58.309Z,218.82
2022-11-06T10:58:58.312Z,214.59
2022-11-06T10:59:58.420Z,180.71
2022-11-06T11:00:58.361Z,175.06
2022-11-06T11:01:58.494Z,165.18
2022-11-06T11:02:58.304Z,172.24
2022-11-06T11:03:58.301Z,203.29
2022-11-06T11:04:58.680Z,214.59
2022-11-06T11:05:58.299Z,232.94
2022-11-06T11:06:58.314Z,249.88
2022-11-06T11:07:58.304Z,190.59
2022-11-06T11:08:58.324Z,173.65
2022-11-06T11:09:58.313Z,149.65
2022-11-06T11:11:04.763Z,180.71
2022-11-06T11:11:58.319Z,228.71
2022-11-06T11:12:58.316Z,158.12
2022-11-06T11:13:58.321Z,152.47
2022-11-06T11:14:58.316Z,206.12
2022-11-06T11:15:58.332Z,199.06
2022-11-06T11:16:58.328Z,217.41
2022-11-06T11:17:58.338Z,200.47
2022-11-06T11:18:58.315Z,153.88
2022-11-06T11:19:58.313Z,208.94
2022-11-06T11:20:58.315Z,214.59
2022-11-06T11:21:58.324Z,192
2022-11-06T11:22:58.390Z,187.76
2022-11-06T11:23:58.319Z,169.41
2022-11-06T11:24:58.324Z,170.82
2022-11-06T11:25:58.319Z,199.06
2022-11-06T11:26:58.317Z,177.88
2022-11-06T11:28:02.214Z,225.88
2022-11-06T11:28:58.322Z,237.18
2022-11-06T11:29:58.322Z,242.82
2022-11-06T11:30:58.326Z,203.29
2022-11-06T11:31:58.337Z,175.06
2022-11-06T11:32:58.327Z,199.06
2022-11-06T11:33:58.319Z,187.76
2022-11-06T11:34:58.313Z,189.18
2022-11-06T11:35:58.315Z,153.88
2022-11-06T11:36:58.328Z,172.24
2022-11-06T11:37:58.320Z,193.41
2022-11-06T11:38:58.324Z,187.76
2022-11-06T11:39:58.322Z,224.47
2022-11-06T11:40:58.320Z,232.94
2022-11-06T11:41:58.322Z,237.18
2022-11-06T11:42:58.328Z,122.82
2022-11-06T11:43:58.337Z,207.53
2022-11-06T11:44:58.322Z,194.82
2022-11-06T11:45:58.331Z,128.47
2022-11-06T11:46:58.323Z,207.53
2022-11-06T11:47:58.422Z,282.35
2022-11-06T11:48:58.343Z,214.59
2022-11-06T11:49:58.326Z,176.47
2022-11-06T11:50:58.332Z,153.88
2022-11-06T11:51:58.334Z,189.18
2022-11-06T11:52:58.332Z,170.82
2022-11-06T11:53:58.337Z,176.47
2022-11-06T11:54:58.334Z,227.29
2022-11-06T11:55:58.338Z,189.18
2022-11-06T11:57:04.468Z,175.06
2022-11-06T11:57:58.345Z,153.88
2022-11-06T11:58:58.343Z,199.06
2022-11-06T11:59:58.346Z,230.12
2022-11-06T12:00:58.347Z,231.53
2022-11-06T12:01:58.414Z,221.65
2022-11-06T12:02:58.418Z,192
2022-11-06T12:03:58.369Z,235.76
2022-11-06T12:04:58.355Z,210.35
2022-11-06T12:05:58.350Z,223.06
2022-11-06T12:06:58.374Z,204.71
2022-11-06T12:07:58.362Z,200.47
2022-11-06T12:08:58.352Z,238.59
2022-11-06T12:09:58.350Z,245.65
2022-11-06T12:10:58.367Z,262.59
2022-11-06T12:11:58.355Z,204.71
2022-11-06T12:12:58.369Z,225.88
2022-11-06T12:13:58.359Z,237.18
2022-11-06T12:14:58.361Z,204.71
2022-11-06T12:15:58.367Z,199.06
2022-11-06T12:16:58.364Z,183.53
2022-11-06T12:17:58.365Z,197.65
2022-11-06T12:18:59.134Z,238.59
2022-11-06T12:19:58.385Z,201.88
2022-11-06T12:20:58.367Z,192
2022-11-06T12:21:58.361Z,207.53
2022-11-06T12:22:58.361Z,199.06
2022-11-06T12:23:58.370Z,193.41
2022-11-06T12:24:58.376Z,203.29
2022-11-06T12:25:58.367Z,190.59
2022-11-06T12:26:58.373Z,186.35
2022-11-06T12:27:58.371Z,192
2022-11-06T12:29:03.820Z,190.59
2022-11-06T12:29:58.379Z,196.24
2022-11-06T12:30:58.388Z,194.82
2022-11-06T12:31:58.380Z,227.29
2022-11-06T12:32:58.383Z,204.71
2022-11-06T12:34:07.010Z,192
2022-11-06T12:34:58.394Z,192
2022-11-06T12:35:58.560Z,199.06
2022-11-06T12:36:58.396Z,213.18
2022-11-06T12:37:58.392Z,230.12
2022-11-06T12:38:58.390Z,189.18
2022-11-06T12:39:58.392Z,180.71
2022-11-06T12:40:58.395Z,207.53
2022-11-06T12:41:58.389Z,224.47